createdAt,value
2018-07-28T00:05:15.899Z,18.40
2018-07-28T00:07:47.904Z,18.30
2018-07-28T00:10:19.664Z,18.30
2018-07-28T00:15:23.330Z,18.20
2018-07-28T00:17:55.155Z,18.10
2018-07-28T00:20:27.061Z,18.10
2018-07-28T00:28:05.306Z,18.10
2018-07-28T00:30:37.097Z,18.00
2018-07-28T00:35:40.286Z,18.00
2018-07-28T00:38:12.145Z,18.00
2018-07-28T00:43:16.208Z,18.00
2018-07-28T00:45:48.253Z,18.00
2018-07-28T00:48:19.952Z,18.00
2018-07-28T00:50:51.804Z,18.00
2018-07-28T00:53:24.838Z,17.90
2018-07-28T00:58:28.752Z,17.90
2018-07-28T01:01:00.441Z,17.90
2018-07-28T01:03:32.432Z,17.90
2018-07-28T01:06:04.389Z,17.80
2018-07-28T01:08:36.128Z,17.80
2018-07-28T01:11:08.073Z,17.80
2018-07-28T01:16:11.217Z,17.70
2018-07-28T01:18:43.634Z,17.70
2018-07-28T01:21:16.379Z,17.60
2018-07-28T01:23:48.234Z,17.60
2018-07-28T01:26:20.009Z,17.70
2018-07-28T01:28:55.764Z,17.70
2018-07-28T01:31:28.571Z,17.70
2018-07-28T01:36:31.454Z,17.70
2018-07-28T01:39:03.493Z,17.80
2018-07-28T01:41:35.382Z,17.80
2018-07-28T01:51:40.934Z,17.80
2018-07-28T01:54:12.855Z,17.90
2018-07-28T01:56:45.162Z,17.90
2018-07-28T01:59:17.253Z,17.90
2018-07-28T02:01:48.990Z,18.00
2018-07-28T02:04:20.626Z,18.00
2018-07-28T02:06:52.580Z,18.00
2018-07-28T02:09:24.420Z,18.00
2018-07-28T02:11:56.285Z,18.10
2018-07-28T02:14:28.887Z,18.10
2018-07-28T02:17:00.755Z,18.10
2018-07-28T02:22:04.046Z,18.10
2018-07-28T02:24:36.682Z,18.10
2018-07-28T02:34:43.404Z,18.20
2018-07-28T02:37:15.387Z,18.10
2018-07-28T02:39:47.678Z,18.10
2018-07-28T02:42:19.467Z,18.10
2018-07-28T02:44:51.337Z,18.00
2018-07-28T02:47:24.033Z,18.00
2018-07-28T02:49:56.363Z,17.90
2018-07-28T02:54:59.402Z,17.90
2018-07-28T03:00:04.129Z,17.90
2018-07-28T03:02:35.975Z,17.90
2018-07-28T03:05:09.027Z,18.00
2018-07-28T03:10:13.023Z,17.90
2018-07-28T03:12:44.852Z,17.90
2018-07-28T03:15:35.031Z,17.90
2018-07-28T03:18:08.504Z,17.90
2018-07-28T03:20:40.276Z,17.90
2018-07-28T03:23:11.914Z,17.80
2018-07-28T03:25:44.470Z,17.70
2018-07-28T03:28:16.483Z,17.60
2018-07-28T03:30:48.799Z,17.70
2018-07-28T03:33:20.560Z,17.70
2018-07-28T03:35:52.898Z,17.70
2018-07-28T03:40:55.956Z,17.70
2018-07-28T03:43:30.895Z,17.80
2018-07-28T03:48:34.853Z,17.90
2018-07-28T03:53:38.226Z,18.10
2018-07-28T04:01:12.526Z,18.20
2018-07-28T04:11:17.745Z,18.50
2018-07-28T04:13:49.499Z,18.60
2018-07-28T04:16:21.565Z,18.60
2018-07-28T04:18:53.509Z,18.70
2018-07-28T04:23:56.382Z,18.90
2018-07-28T04:26:27.813Z,19.10
2018-07-28T04:31:30.635Z,19.30
2018-07-28T04:34:02.718Z,19.40
2018-07-28T04:36:35.375Z,19.40
2018-07-28T04:39:11.100Z,19.50
2018-07-28T04:41:43.759Z,19.50
2018-07-28T04:46:46.733Z,19.70
2018-07-28T04:49:18.949Z,19.80
2018-07-28T04:51:50.905Z,19.80
2018-07-28T04:54:23.113Z,19.90
2018-07-28T04:56:55.088Z,19.90
2018-07-28T04:59:27.378Z,20.10
2018-07-28T05:01:59.506Z,20.20
2018-07-28T05:07:03.550Z,20.30
2018-07-28T05:12:07.064Z,20.10
2018-07-28T05:14:38.617Z,20.00
2018-07-28T05:17:10.357Z,20.10
2018-07-28T05:19:42.577Z,20.10
2018-07-28T05:22:14.671Z,20.20
2018-07-28T05:24:46.615Z,20.20
2018-07-28T05:27:18.832Z,20.20
2018-07-28T05:29:50.275Z,20.20
2018-07-28T05:32:23.398Z,20.40
2018-07-28T05:34:55.685Z,20.50
2018-07-28T05:37:28.441Z,20.50
2018-07-28T05:40:00.506Z,20.60
2018-07-28T05:42:32.911Z,20.60
2018-07-28T05:45:04.446Z,20.60
2018-07-28T05:47:36.743Z,20.70
2018-07-28T05:50:10.316Z,20.70
2018-07-28T05:52:42.528Z,20.70
2018-07-28T05:55:14.385Z,20.70
2018-07-28T05:57:46.596Z,20.70
2018-07-28T06:00:18.422Z,20.70
2018-07-28T06:02:50.699Z,20.70
2018-07-28T06:05:23.046Z,20.80
2018-07-28T06:07:55.411Z,21.00
2018-07-28T06:10:27.851Z,21.00
2018-07-28T06:13:00.102Z,21.10
2018-07-28T06:15:32.396Z,21.40
2018-07-28T06:18:04.802Z,21.50
2018-07-28T06:20:37.134Z,21.50
2018-07-28T06:23:09.518Z,21.50
2018-07-28T06:25:41.876Z,21.50
2018-07-28T06:28:14.284Z,21.50
2018-07-28T06:30:46.547Z,21.50
2018-07-28T06:33:18.284Z,21.50
2018-07-28T06:35:50.318Z,21.60
2018-07-28T06:38:22.811Z,21.80
2018-07-28T06:40:54.863Z,21.90
2018-07-28T06:43:26.864Z,21.90
2018-07-28T06:45:59.197Z,22.00
2018-07-28T06:48:31.193Z,22.00
2018-07-28T06:53:35.004Z,22.00
2018-07-28T06:58:39.839Z,22.30
2018-07-28T07:01:12.277Z,22.30
2018-07-28T07:03:44.012Z,22.50
2018-07-28T07:06:16.255Z,22.60
2018-07-28T07:08:48.617Z,23.10
2018-07-28T07:11:20.820Z,23.40
2018-07-28T07:16:26.222Z,23.40
2018-07-28T07:18:57.971Z,23.40
2018-07-28T07:21:30.416Z,23.60
2018-07-28T07:24:02.544Z,23.70
2018-07-28T07:26:34.947Z,24.00
2018-07-28T07:29:07.820Z,24.20
2018-07-28T07:31:40.025Z,24.50
2018-07-28T07:36:44.663Z,25.00
2018-07-28T07:41:49.072Z,25.20
2018-07-28T07:44:21.095Z,25.10
2018-07-28T07:46:53.933Z,25.00
2018-07-28T07:49:25.608Z,25.00
2018-07-28T07:51:57.667Z,25.10
2018-07-28T07:54:29.775Z,25.10
2018-07-28T07:57:02.147Z,25.20
2018-07-28T08:02:05.903Z,25.40
2018-07-28T08:07:09.758Z,25.50
2018-07-28T08:09:41.900Z,25.60
2018-07-28T08:14:46.502Z,25.60
2018-07-28T08:17:18.899Z,25.50
2018-07-28T08:19:51.104Z,25.50
2018-07-28T08:24:55.616Z,25.20
2018-07-28T08:27:28.089Z,25.40
2018-07-28T08:30:01.048Z,25.70
2018-07-28T08:32:33.257Z,25.90
2018-07-28T08:35:06.739Z,25.90
2018-07-28T08:37:39.556Z,25.80
2018-07-28T08:40:12.765Z,25.90
2018-07-28T08:42:45.013Z,26.10
2018-07-28T08:50:20.745Z,26.30
2018-07-28T08:52:52.981Z,26.60
2018-07-28T08:55:25.127Z,26.90
2018-07-28T08:57:57.503Z,27.10
2018-07-28T09:00:29.450Z,27.20
2018-07-28T09:03:01.690Z,27.40
2018-07-28T09:05:33.737Z,27.60
2018-07-28T09:08:06.037Z,27.80
2018-07-28T09:10:38.259Z,27.80
2018-07-28T09:13:10.748Z,27.80
2018-07-28T09:18:14.421Z,27.90
2018-07-28T09:20:46.966Z,28.10
2018-07-28T09:23:19.711Z,28.30
2018-07-28T09:25:52.045Z,28.30
2018-07-28T09:28:24.207Z,28.20
2018-07-28T09:30:56.284Z,28.20
2018-07-28T09:33:28.775Z,28.30
2018-07-28T09:36:01.455Z,28.40
2018-07-28T09:38:33.902Z,28.60
2018-07-28T09:41:06.204Z,28.70
2018-07-28T09:43:38.268Z,28.80
2018-07-28T09:46:10.468Z,28.80
2018-07-28T09:48:42.917Z,28.80
2018-07-28T09:51:15.174Z,28.80
2018-07-28T09:53:47.976Z,28.70
2018-07-28T09:56:20.731Z,28.80
2018-07-28T09:58:53.044Z,28.80
2018-07-28T10:01:25.411Z,28.90
2018-07-28T10:03:58.070Z,28.90
2018-07-28T10:06:30.645Z,29.00
2018-07-28T10:11:34.373Z,29.00
2018-07-28T10:14:06.820Z,29.00
2018-07-28T10:16:38.382Z,29.10
2018-07-28T10:19:10.386Z,29.10
2018-07-28T10:21:42.819Z,29.20
2018-07-28T10:24:14.942Z,29.40
2018-07-28T10:29:47.596Z,29.40
2018-07-28T10:32:19.640Z,29.40
2018-07-28T10:34:51.843Z,29.40
2018-07-28T10:37:24.361Z,29.50
2018-07-28T10:39:56.645Z,29.50
2018-07-28T10:42:28.877Z,29.50
2018-07-28T10:45:01.780Z,29.40
2018-07-28T10:47:33.755Z,29.30
2018-07-28T10:50:05.848Z,29.10
2018-07-28T10:52:38.198Z,29.20
2018-07-28T10:55:10.528Z,29.30
2018-07-28T10:57:42.543Z,29.50
2018-07-28T11:00:14.556Z,29.60
2018-07-28T11:02:47.190Z,29.70
2018-07-28T11:05:19.913Z,29.60
2018-07-28T11:07:53.459Z,29.50
2018-07-28T11:10:25.842Z,29.40
2018-07-28T11:12:58.202Z,29.40
2018-07-28T11:15:30.396Z,29.50
2018-07-28T11:20:34.702Z,29.80
2018-07-28T11:23:07.614Z,30.00
2018-07-28T11:25:39.783Z,30.10
2018-07-28T11:28:12.397Z,30.20
2018-07-28T11:30:44.766Z,30.20
2018-07-28T11:33:32.963Z,30.40
2018-07-28T11:36:21.153Z,30.30
2018-07-28T11:39:09.616Z,30.10
2018-07-28T11:41:57.453Z,30.10
2018-07-28T11:44:45.705Z,30.10
2018-07-28T11:47:18.183Z,30.10
2018-07-28T11:49:51.475Z,30.10
2018-07-28T11:54:55.569Z,30.20
2018-07-28T12:00:00.195Z,30.40
2018-07-28T12:02:33.422Z,30.50
2018-07-28T12:05:05.951Z,30.40
2018-07-28T12:07:38.397Z,30.40
2018-07-28T12:10:11.340Z,30.50
2018-07-28T12:12:43.491Z,30.60
2018-07-28T12:15:17.987Z,30.60
2018-07-28T12:17:50.389Z,30.50
2018-07-28T12:20:22.639Z,30.60
2018-07-28T12:22:54.360Z,30.70
2018-07-28T12:25:26.588Z,30.90
2018-07-28T12:27:58.744Z,30.80
2018-07-28T12:30:31.488Z,30.80
2018-07-28T12:33:03.821Z,30.80
2018-07-28T12:35:35.757Z,30.70
2018-07-28T12:38:07.549Z,30.30
2018-07-28T12:40:39.598Z,30.10
2018-07-28T12:43:11.580Z,30.00
2018-07-28T12:45:43.582Z,29.80
2018-07-28T12:48:15.726Z,29.60
2018-07-28T12:53:19.585Z,29.60
2018-07-28T12:55:52.965Z,29.80
2018-07-28T13:00:56.831Z,30.10
2018-07-28T13:03:29.393Z,30.10
2018-07-28T13:06:01.437Z,30.10
2018-07-28T13:08:35.105Z,29.90
2018-07-28T13:11:07.607Z,29.70
2018-07-28T13:13:39.629Z,29.40
2018-07-28T13:16:12.165Z,29.10
2018-07-28T13:18:44.627Z,28.90
2018-07-28T13:21:16.592Z,28.70
2018-07-28T13:23:49.163Z,28.60
2018-07-28T13:26:21.707Z,28.40
2018-07-28T13:28:53.882Z,28.20
2018-07-28T13:31:25.918Z,28.10
2018-07-28T13:33:58.567Z,28.00
2018-07-28T13:36:30.766Z,28.00
2018-07-28T13:39:02.986Z,27.90
2018-07-28T13:41:36.488Z,27.80
2018-07-28T13:44:08.650Z,27.80
2018-07-28T13:51:44.340Z,27.70
2018-07-28T13:54:16.619Z,27.80
2018-07-28T13:56:49.162Z,27.80
2018-07-28T13:59:21.361Z,27.80
2018-07-28T14:01:53.340Z,27.90
2018-07-28T14:06:58.648Z,27.90
2018-07-28T14:12:02.715Z,27.80
2018-07-28T14:17:07.203Z,27.80
2018-07-28T14:19:40.384Z,27.70
2018-07-28T14:22:12.343Z,27.70
2018-07-28T14:24:44.724Z,27.80
2018-07-28T14:27:16.787Z,27.80
2018-07-28T14:29:48.955Z,27.80
2018-07-28T14:32:21.334Z,27.70
2018-07-28T14:34:54.949Z,27.60
2018-07-28T14:37:28.557Z,27.50
2018-07-28T14:42:32.450Z,27.40
2018-07-28T14:45:06.426Z,27.30
2018-07-28T14:47:39.455Z,27.20
2018-07-28T14:50:11.885Z,27.10
2018-07-28T14:52:43.864Z,27.10
2018-07-28T14:55:16.017Z,27.10
2018-07-28T14:57:48.417Z,27.20
2018-07-28T15:00:20.805Z,27.20
2018-07-28T15:05:26.036Z,27.30
2018-07-28T15:07:58.257Z,27.30
2018-07-28T15:10:30.607Z,27.40
2018-07-28T15:13:02.831Z,27.50
2018-07-28T15:18:06.737Z,27.40
2018-07-28T15:20:39.065Z,27.20
2018-07-28T15:23:11.245Z,27.10
2018-07-28T15:25:43.595Z,26.90
2018-07-28T15:28:16.350Z,26.70
2018-07-28T15:33:20.711Z,26.50
2018-07-28T15:35:52.967Z,26.40
2018-07-28T15:38:25.684Z,26.30
2018-07-28T15:40:59.137Z,26.30
2018-07-28T15:43:31.209Z,26.20
2018-07-28T15:46:03.338Z,26.20
2018-07-28T15:48:36.368Z,26.20
2018-07-28T15:51:09.137Z,26.20
2018-07-28T15:53:41.795Z,26.20
2018-07-28T15:56:14.280Z,26.20
2018-07-28T15:58:47.057Z,26.20
2018-07-28T16:01:19.804Z,26.00
2018-07-28T16:03:52.034Z,26.00
2018-07-28T16:06:25.139Z,25.90
2018-07-28T16:08:57.998Z,25.90
2018-07-28T16:11:30.546Z,25.80
2018-07-28T16:14:03.139Z,25.70
2018-07-28T16:16:35.363Z,25.70
2018-07-28T16:19:08.062Z,25.60
2018-07-28T16:21:40.832Z,25.60
2018-07-28T16:24:13.141Z,25.60
2018-07-28T16:26:45.979Z,25.50
2018-07-28T16:29:19.389Z,25.50
2018-07-28T16:31:52.007Z,25.40
2018-07-28T16:34:25.243Z,25.40
2018-07-28T16:36:58.555Z,25.40
2018-07-28T16:39:31.130Z,25.40
2018-07-28T16:42:03.282Z,25.40
2018-07-28T16:44:35.691Z,25.40
2018-07-28T16:47:08.739Z,25.40
2018-07-28T16:49:41.392Z,25.40
2018-07-28T16:52:14.287Z,25.40
2018-07-28T16:54:46.799Z,25.50
2018-07-28T16:59:50.989Z,25.40
2018-07-28T17:02:23.476Z,25.40
2018-07-28T17:04:56.108Z,25.40
2018-07-28T17:07:28.460Z,25.40
2018-07-28T17:10:01.091Z,25.40
2018-07-28T17:12:33.573Z,25.30
2018-07-28T17:15:06.139Z,25.30
2018-07-28T17:17:39.129Z,25.30
2018-07-28T17:20:11.962Z,25.20
2018-07-28T17:22:44.663Z,25.10
2018-07-28T17:27:49.372Z,24.90
2018-07-28T17:30:25.511Z,24.80
2018-07-28T17:32:58.283Z,24.60
2018-07-28T17:35:30.946Z,24.50
2018-07-28T17:38:03.451Z,24.40
2018-07-28T17:40:36.261Z,24.40
2018-07-28T17:43:08.452Z,24.20
2018-07-28T17:45:40.933Z,24.10
2018-07-28T17:48:13.604Z,24.10
2018-07-28T17:50:46.296Z,24.00
2018-07-28T17:53:18.915Z,23.90
2018-07-28T17:58:23.007Z,23.70
2018-07-28T18:00:55.686Z,23.60
2018-07-28T18:03:27.692Z,23.50
2018-07-28T18:06:00.364Z,23.50
2018-07-28T18:08:32.913Z,23.40
2018-07-28T18:11:05.654Z,23.30
2018-07-28T18:13:38.165Z,23.30
2018-07-28T18:16:10.564Z,23.20
2018-07-28T18:18:44.544Z,23.00
2018-07-28T18:21:16.856Z,22.90
2018-07-28T18:23:50.194Z,22.80
2018-07-28T18:26:22.502Z,22.80
2018-07-28T18:31:26.869Z,22.70
2018-07-28T18:33:59.382Z,22.70
2018-07-28T18:36:31.829Z,22.60
2018-07-28T18:39:05.663Z,22.60
2018-07-28T18:41:39.049Z,22.60
2018-07-28T18:44:12.142Z,22.50
2018-07-28T18:46:45.085Z,22.50
2018-07-28T18:49:18.255Z,22.50
2018-07-28T18:54:23.328Z,22.50
2018-07-28T18:56:56.504Z,22.50
2018-07-28T18:59:29.584Z,22.50
2018-07-28T19:02:02.589Z,22.60
2018-07-28T19:04:35.447Z,22.50
2018-07-28T19:07:08.134Z,22.40
2018-07-28T19:09:45.493Z,22.40
2018-07-28T19:12:19.247Z,22.30
2018-07-28T19:14:52.997Z,22.40
2018-07-28T19:17:29.766Z,22.40
2018-07-28T19:22:39.497Z,22.40
2018-07-28T19:25:12.046Z,22.40
2018-07-28T19:27:50.893Z,22.30
2018-07-28T19:30:23.867Z,22.40
2018-07-28T19:32:56.696Z,22.30
2018-07-28T19:35:33.790Z,22.30
2018-07-28T19:38:07.480Z,22.20
2018-07-28T19:40:40.525Z,22.10
2018-07-28T19:43:14.262Z,22.10
2018-07-28T19:45:46.856Z,22.00
2018-07-28T19:48:19.785Z,21.90
2018-07-28T19:50:53.223Z,21.90
2018-07-28T19:53:27.034Z,21.90
2018-07-28T19:55:59.484Z,21.90
2018-07-28T19:58:32.585Z,21.90
2018-07-28T20:01:06.383Z,21.80
2018-07-28T20:03:38.894Z,21.90
2018-07-28T20:06:11.426Z,21.80
2018-07-28T20:08:43.336Z,21.80
2018-07-28T20:11:15.893Z,21.80
2018-07-28T20:13:47.893Z,21.80
2018-07-28T20:16:20.496Z,21.80
2018-07-28T20:18:53.860Z,21.80
2018-07-28T20:21:26.276Z,21.80
2018-07-28T20:23:58.721Z,21.80
2018-07-28T20:26:31.169Z,21.80
2018-07-28T20:29:03.846Z,21.70
2018-07-28T20:31:36.511Z,21.70
2018-07-28T20:34:09.007Z,21.60
2018-07-28T20:36:41.668Z,21.60
2018-07-28T20:39:14.356Z,21.60
2018-07-28T20:41:48.035Z,21.60
2018-07-28T20:44:20.504Z,21.50
2018-07-28T20:46:52.632Z,21.50
2018-07-28T20:49:24.819Z,21.50
2018-07-28T20:51:57.517Z,21.50
2018-07-28T20:54:30.213Z,21.40
2018-07-28T20:57:02.434Z,21.40
2018-07-28T20:59:34.582Z,21.30
2018-07-28T21:02:06.996Z,21.20
2018-07-28T21:04:41.199Z,21.20
2018-07-28T21:07:13.452Z,21.20
2018-07-28T21:09:46.724Z,21.10
2018-07-28T21:12:18.864Z,21.10
2018-07-28T21:14:50.911Z,21.10
2018-07-28T21:19:54.873Z,21.10
2018-07-28T21:24:58.506Z,21.00
2018-07-28T21:27:30.864Z,20.90
2018-07-28T21:30:03.152Z,20.90
2018-07-28T21:32:35.208Z,20.90
2018-07-28T21:35:07.846Z,20.90
2018-07-28T21:37:40.452Z,20.90
2018-07-28T21:40:12.567Z,20.90
2018-07-28T21:45:17.142Z,20.90
2018-07-28T21:47:49.823Z,20.90
2018-07-28T21:50:21.949Z,21.00
2018-07-28T21:52:54.166Z,21.00
2018-07-28T21:55:26.013Z,21.00
2018-07-28T21:57:58.116Z,21.00
2018-07-28T22:00:34.611Z,20.90
2018-07-28T22:03:06.843Z,20.90
2018-07-28T22:05:39.296Z,20.90
2018-07-28T22:08:11.342Z,20.80
2018-07-28T22:10:44.880Z,20.70
2018-07-28T22:18:20.269Z,20.70
2018-07-28T22:20:52.770Z,20.70
2018-07-28T22:23:25.868Z,20.60
2018-07-28T22:25:58.060Z,20.60
2018-07-28T22:28:30.670Z,20.60
2018-07-28T22:31:03.124Z,20.60
2018-07-28T22:33:35.253Z,20.60
2018-07-28T22:36:08.171Z,20.60
2018-07-28T22:38:40.930Z,20.70
2018-07-28T22:41:13.008Z,20.60
2018-07-28T22:43:45.455Z,20.60
2018-07-28T22:46:17.417Z,20.70
2018-07-28T22:48:49.864Z,20.70
2018-07-28T22:51:21.532Z,20.70
2018-07-28T22:53:54.408Z,20.70
2018-07-28T22:56:26.617Z,20.70
2018-07-28T22:58:58.600Z,20.70
2018-07-28T23:01:30.815Z,20.70
2018-07-28T23:04:04.222Z,20.70
2018-07-28T23:06:36.505Z,20.70
2018-07-28T23:09:11.745Z,20.70
2018-07-28T23:11:43.902Z,20.70
2018-07-28T23:14:16.001Z,20.70
2018-07-28T23:16:48.202Z,20.70
2018-07-28T23:19:20.074Z,20.60
2018-07-28T23:21:52.270Z,20.60
2018-07-28T23:24:24.794Z,20.60
2018-07-28T23:26:56.940Z,20.60
2018-07-28T23:29:29.123Z,20.60
2018-07-28T23:32:01.388Z,20.50
2018-07-28T23:34:33.864Z,20.60
2018-07-28T23:37:05.897Z,20.60
2018-07-28T23:39:37.971Z,20.60
2018-07-28T23:42:10.897Z,20.50
2018-07-28T23:44:42.991Z,20.60
2018-07-28T23:47:15.645Z,20.60
2018-07-28T23:52:19.388Z,20.60
2018-07-28T23:54:51.558Z,20.60
2018-07-28T23:59:55.976Z,20.60
